createdAt,value
2022-11-24T00:01:19.905Z,7.35
2022-11-24T00:03:53.396Z,5.50
2022-11-24T00:06:20.478Z,2.90
2022-11-24T00:08:47.941Z,3.75
2022-11-24T00:11:20.280Z,3.70
2022-11-24T00:13:47.778Z,6.18
2022-11-24T00:16:20.334Z,3.15
2022-11-24T00:18:49.274Z,2.45
2022-11-24T00:21:17.952Z,3.88
2022-11-24T00:23:45.547Z,3.95
2022-11-24T00:26:15.288Z,5.60
2022-11-24T00:28:43.643Z,8.77
2022-11-24T00:31:20.102Z,3.30
2022-11-24T00:33:49.984Z,3.63
2022-11-24T00:36:18.429Z,2.15
2022-11-24T00:38:46.401Z,3.33
2022-11-24T00:41:14.221Z,5.78
2022-11-24T00:43:41.350Z,3.65
2022-11-24T00:46:08.693Z,3.58
2022-11-24T00:48:36.047Z,3.03
2022-11-24T00:51:09.080Z,2.58
2022-11-24T00:53:36.423Z,2.40
2022-11-24T00:56:04.316Z,4.55
2022-11-24T00:58:32.348Z,4.97
2022-11-24T01:01:12.934Z,4.07
2022-11-24T01:03:40.212Z,4.20
2022-11-24T01:06:15.892Z,3.67
2022-11-24T01:08:43.671Z,3.65
2022-11-24T01:11:19.543Z,7.32
2022-11-24T01:13:48.619Z,3.90
2022-11-24T01:16:30.372Z,4.18
2022-11-24T01:18:58.037Z,2.80
2022-11-24T01:21:25.389Z,2.83
2022-11-24T01:23:52.485Z,5.45
2022-11-24T01:26:21.679Z,3.42
2022-11-24T01:28:56.424Z,3.53
2022-11-24T01:31:24.304Z,7.22
2022-11-24T01:33:51.773Z,3.83
2022-11-24T01:36:19.310Z,6.75
2022-11-24T01:38:46.433Z,4.53
2022-11-24T01:41:22.084Z,3.65
2022-11-24T01:43:49.983Z,7.28
2022-11-24T01:46:58.438Z,3.45
2022-11-24T01:49:33.140Z,2.80
2022-11-24T01:52:08.940Z,2.92
2022-11-24T01:54:44.317Z,3.65
2022-11-24T01:57:20.551Z,4.15
2022-11-24T01:59:51.679Z,3.97
2022-11-24T02:02:19.947Z,5.65
2022-11-24T02:04:48.432Z,2.65
2022-11-24T02:07:16.092Z,1.67
2022-11-24T02:09:50.954Z,3.10
2022-11-24T02:12:18.063Z,3.25
2022-11-24T02:14:46.436Z,2.60
2022-11-24T02:17:13.699Z,4.43
2022-11-24T02:19:40.668Z,4.70
2022-11-24T02:22:25.324Z,4.05
2022-11-24T02:25:24.304Z,7.70
2022-11-24T02:27:54.258Z,6.63
2022-11-24T02:30:21.854Z,4.93
2022-11-24T02:32:48.984Z,5.38
2022-11-24T02:35:16.136Z,6.65
2022-11-24T02:37:43.150Z,4.57
2022-11-24T02:40:10.796Z,3.00
2022-11-24T02:42:43.362Z,5.28
2022-11-24T02:45:12.211Z,2.80
2022-11-24T02:47:39.225Z,5.68
2022-11-24T02:50:06.835Z,2.83
2022-11-24T02:52:33.899Z,3.38
2022-11-24T02:55:00.937Z,3.33
2022-11-24T02:57:28.069Z,4.60
2022-11-24T02:59:55.071Z,4.90
2022-11-24T03:02:22.345Z,1.73
2022-11-24T03:04:49.596Z,6.05
2022-11-24T03:07:16.670Z,3.20
2022-11-24T03:09:43.849Z,4.25
2022-11-24T03:12:10.950Z,2.95
2022-11-24T03:14:38.079Z,3.13
2022-11-24T03:17:05.202Z,6.15
2022-11-24T03:19:32.292Z,9.40
2022-11-24T03:22:00.078Z,2.42
2022-11-24T03:24:27.137Z,3.22
2022-11-24T03:26:54.247Z,6.55
2022-11-24T03:29:21.617Z,5.72
2022-11-24T03:31:48.764Z,5.75
2022-11-24T03:34:15.796Z,3.83
2022-11-24T03:36:42.778Z,4.60
2022-11-24T03:39:10.103Z,2.97
2022-11-24T03:41:37.162Z,5.45
2022-11-24T03:44:04.398Z,4.60
2022-11-24T03:46:31.535Z,4.07
2022-11-24T03:48:58.614Z,4.28
2022-11-24T03:51:25.706Z,5.13
2022-11-24T03:53:52.805Z,6.78
2022-11-24T03:56:21.379Z,6.75
2022-11-24T03:58:48.443Z,5.53
2022-11-24T04:01:15.622Z,4.30
2022-11-24T04:03:42.651Z,3.65
2022-11-24T04:06:09.780Z,4.80
2022-11-24T04:08:36.829Z,6.22
2022-11-24T04:11:03.957Z,4.25
2022-11-24T04:13:30.979Z,8.07
2022-11-24T04:15:58.131Z,6.53
2022-11-24T04:18:25.345Z,3.95
2022-11-24T04:20:52.767Z,3.45
2022-11-24T04:23:20.305Z,5.85
2022-11-24T04:25:47.352Z,5.50
2022-11-24T04:28:14.732Z,5.55
2022-11-24T04:30:45.249Z,5.88
2022-11-24T04:33:13.022Z,4.75
2022-11-24T04:35:40.178Z,4.63
2022-11-24T04:38:07.197Z,4.35
2022-11-24T04:40:34.202Z,3.25
2022-11-24T04:43:01.267Z,4.35
2022-11-24T04:45:28.293Z,4.15
2022-11-24T04:47:55.342Z,3.50
2022-11-24T04:50:22.735Z,5.22
2022-11-24T04:52:49.875Z,4.45
2022-11-24T04:55:16.928Z,3.28
2022-11-24T04:57:44.422Z,3.67
2022-11-24T05:00:12.212Z,3.08
2022-11-24T05:02:39.285Z,4.93
2022-11-24T05:05:07.629Z,4.20
2022-11-24T05:07:35.232Z,3.17
2022-11-24T05:10:21.302Z,3.92
2022-11-24T05:12:56.856Z,3.08
2022-11-24T05:15:23.911Z,5.05
2022-11-24T05:17:50.919Z,5.10
2022-11-24T05:20:18.543Z,4.97
2022-11-24T05:22:45.873Z,7.82
2022-11-24T05:25:13.299Z,5.90
2022-11-24T05:27:41.097Z,4.53
2022-11-24T05:30:08.643Z,4.85
2022-11-24T05:32:35.620Z,4.70
2022-11-24T05:35:04.800Z,2.70
2022-11-24T05:37:31.809Z,3.22
2022-11-24T05:39:58.872Z,2.80
2022-11-24T05:42:46.181Z,5.90
2022-11-24T05:45:20.907Z,5.53
2022-11-24T05:47:49.156Z,2.53
2022-11-24T05:50:17.927Z,3.40
2022-11-24T05:52:45.299Z,5.00
2022-11-24T05:55:14.944Z,2.47
2022-11-24T05:57:42.282Z,5.40
2022-11-24T06:00:10.600Z,4.78
2022-11-24T06:02:38.106Z,5.72
2022-11-24T06:05:05.563Z,6.88
2022-11-24T06:07:32.629Z,7.90
2022-11-24T06:09:59.773Z,7.13
2022-11-24T06:12:26.781Z,4.40
2022-11-24T06:14:53.877Z,5.60
2022-11-24T06:17:20.924Z,6.10
2022-11-24T06:19:50.367Z,4.55
2022-11-24T06:22:19.182Z,4.78
2022-11-24T06:24:47.033Z,4.53
2022-11-24T06:27:14.649Z,3.63
2022-11-24T06:29:41.732Z,6.93
2022-11-24T06:32:09.311Z,4.10
2022-11-24T06:34:36.727Z,3.90
2022-11-24T06:37:04.059Z,5.60
2022-11-24T06:39:31.122Z,3.78
2022-11-24T06:41:59.016Z,4.60
2022-11-24T06:44:26.290Z,2.40
2022-11-24T06:46:53.335Z,4.47
2022-11-24T06:49:20.343Z,7.13
2022-11-24T06:51:47.416Z,4.57
2022-11-24T06:54:18.039Z,3.38
2022-11-24T06:56:45.089Z,5.40
2022-11-24T06:59:18.841Z,4.50
2022-11-24T07:04:13.297Z,11.32
2022-11-24T07:06:43.029Z,8.57
2022-11-24T07:09:11.332Z,12.38
2022-11-24T07:11:39.083Z,6.85
2022-11-24T07:14:06.645Z,8.25
2022-11-24T07:16:34.242Z,6.60
2022-11-24T07:19:01.334Z,7.13
2022-11-24T07:21:30.889Z,8.77
2022-11-24T07:23:58.667Z,9.57
2022-11-24T07:26:25.754Z,8.23
2022-11-24T07:28:52.862Z,6.90
2022-11-24T07:31:22.259Z,6.43
2022-11-24T07:33:50.405Z,9.30
2022-11-24T07:36:17.769Z,5.35
2022-11-24T07:38:46.049Z,10.80
2022-11-24T07:41:15.096Z,5.55
2022-11-24T07:43:42.507Z,8.85
2022-11-24T07:46:12.557Z,4.95
2022-11-24T07:48:40.021Z,3.88
2022-11-24T07:51:08.441Z,5.97
2022-11-24T07:53:36.153Z,3.67
2022-11-24T07:56:05.197Z,5.53
2022-11-24T07:58:34.713Z,11.00
2022-11-24T08:01:13.816Z,6.28
2022-11-24T08:03:41.489Z,7.88
2022-11-24T08:06:26.517Z,7.50
2022-11-24T08:08:55.784Z,6.97
2022-11-24T08:11:23.047Z,10.50
2022-11-24T08:13:50.181Z,9.05
2022-11-24T08:16:19.684Z,5.40
2022-11-24T08:18:51.736Z,5.78
2022-11-24T08:21:19.227Z,5.07
2022-11-24T08:23:46.626Z,5.05
2022-11-24T08:26:17.820Z,6.22
2022-11-24T08:28:46.472Z,4.28
2022-11-24T08:31:15.969Z,3.15
2022-11-24T08:33:43.442Z,9.85
2022-11-24T08:36:15.626Z,4.15
2022-11-24T08:38:43.462Z,8.18
2022-11-24T08:41:16.218Z,7.20
2022-11-24T08:43:43.738Z,8.65
2022-11-24T08:46:13.432Z,7.72
2022-11-24T08:48:40.933Z,13.02
2022-11-24T08:51:15.798Z,10.35
2022-11-24T08:53:43.095Z,6.03
2022-11-24T08:56:11.104Z,6.35
2022-11-24T08:58:39.026Z,6.63
2022-11-24T09:01:11.952Z,8.45
2022-11-24T09:03:42.350Z,12.97
2022-11-24T09:06:13.708Z,10.57
2022-11-24T09:08:41.081Z,11.05
2022-11-24T09:11:11.427Z,10.70
2022-11-24T09:13:39.588Z,8.20
2022-11-24T09:16:11.764Z,10.57
2022-11-24T09:18:38.913Z,6.97
2022-11-24T09:21:08.254Z,15.70
2022-11-24T09:23:36.162Z,9.95
2022-11-24T09:26:12.749Z,11.00
2022-11-24T09:28:40.058Z,10.32
2022-11-24T09:31:09.163Z,6.90
2022-11-24T09:33:37.016Z,5.45
2022-11-24T09:36:05.150Z,7.05
2022-11-24T09:38:32.552Z,8.10
2022-11-24T09:41:48.903Z,6.07
2022-11-24T09:44:46.742Z,18.25
2022-11-24T09:47:36.448Z,31.80
2022-11-24T09:50:10.620Z,68.80
2022-11-24T09:52:40.540Z,54.03
2022-11-24T09:55:25.828Z,37.67
2022-11-24T09:58:03.489Z,31.55
2022-11-24T10:00:31.331Z,42.78
2022-11-24T10:02:58.467Z,22.05
2022-11-24T10:05:29.738Z,21.85
2022-11-24T10:08:41.030Z,17.52
2022-11-24T10:11:15.142Z,26.10
2022-11-24T10:14:06.375Z,15.23
2022-11-24T10:16:43.716Z,16.30
2022-11-24T10:19:41.193Z,11.55
2022-11-24T10:22:26.514Z,10.93
2022-11-24T10:25:07.944Z,9.73
2022-11-24T10:27:40.542Z,13.45
2022-11-24T10:30:33.951Z,10.57
2022-11-24T10:33:08.586Z,9.33
2022-11-24T10:35:46.151Z,14.48
2022-11-24T10:38:33.135Z,18.55
2022-11-24T10:41:06.032Z,24.08
2022-11-24T10:43:33.148Z,19.97
2022-11-24T10:46:11.038Z,22.42
2022-11-24T10:48:44.387Z,26.30
2022-11-24T10:52:01.593Z,27.08
2022-11-24T10:54:28.734Z,16.45
2022-11-24T10:56:55.997Z,22.45
2022-11-24T10:59:30.191Z,27.75
2022-11-24T11:01:57.490Z,27.52
2022-11-24T11:04:35.888Z,38.88
2022-11-24T11:07:09.908Z,42.58
2022-11-24T11:09:37.224Z,13.48
2022-11-24T11:12:51.727Z,13.57
2022-11-24T11:15:29.086Z,24.75
2022-11-24T11:18:01.378Z,21.38
2022-11-24T11:20:34.505Z,14.75
2022-11-24T11:23:14.592Z,36.28
2022-11-24T11:25:41.645Z,19.33
2022-11-24T11:28:31.950Z,19.35
2022-11-24T11:31:21.712Z,27.98
2022-11-24T11:34:10.648Z,31.17
2022-11-24T11:36:51.109Z,32.85
2022-11-24T11:39:18.133Z,33.58
2022-11-24T11:41:48.506Z,21.40
2022-11-24T11:44:42.424Z,23.30
2022-11-24T11:47:22.136Z,28.52
2022-11-24T11:49:50.081Z,27.55
2022-11-24T11:52:32.634Z,17.63
2022-11-24T11:55:28.885Z,26.98
2022-11-24T11:58:01.687Z,22.45
2022-11-24T12:00:32.040Z,19.70
2022-11-24T12:03:43.169Z,22.08
2022-11-24T12:06:28.335Z,16.52
2022-11-24T12:09:30.699Z,15.55
2022-11-24T12:12:00.538Z,17.17
2022-11-24T12:14:53.505Z,14.75
2022-11-24T12:17:43.150Z,14.88
2022-11-24T12:20:42.916Z,15.25
2022-11-24T12:23:40.728Z,17.30
2022-11-24T12:26:25.082Z,17.98
2022-11-24T12:29:15.998Z,24.58
2022-11-24T12:32:11.035Z,20.55
2022-11-24T12:35:02.363Z,13.75
2022-11-24T12:37:41.581Z,14.65
2022-11-24T12:40:15.999Z,17.77
2022-11-24T12:42:55.141Z,19.15
2022-11-24T12:45:51.076Z,16.73
2022-11-24T12:48:30.293Z,13.13
2022-11-24T12:51:00.016Z,16.10
2022-11-24T12:53:33.236Z,14.35
2022-11-24T12:56:07.873Z,23.02
2022-11-24T12:58:52.940Z,11.07
2022-11-24T13:01:40.126Z,15.55
2022-11-24T13:04:29.215Z,11.18
2022-11-24T13:07:05.407Z,14.95
2022-11-24T13:09:32.550Z,14.25
2022-11-24T13:12:14.089Z,18.13
2022-11-24T13:14:46.407Z,17.75
2022-11-24T13:20:33.774Z,14.70
2022-11-24T13:23:03.778Z,15.98
2022-11-24T13:25:35.565Z,14.88
2022-11-24T13:28:06.901Z,15.68
2022-11-24T13:30:33.899Z,11.70
2022-11-24T13:33:16.563Z,12.27
2022-11-24T13:36:02.507Z,15.13
2022-11-24T13:38:52.991Z,13.45
2022-11-24T13:41:32.060Z,13.35
2022-11-24T13:44:18.388Z,12.25
2022-11-24T13:47:06.773Z,10.00
2022-11-24T13:49:38.900Z,12.43
2022-11-24T13:52:36.790Z,14.73
2022-11-24T13:55:20.023Z,12.38
2022-11-24T13:58:25.296Z,15.23
2022-11-24T14:01:12.559Z,12.45
2022-11-24T14:04:21.673Z,11.02
2022-11-24T14:06:46.583Z,12.85
2022-11-24T14:09:21.871Z,19.67
2022-11-24T14:12:20.506Z,15.35
2022-11-24T14:14:49.686Z,13.77
2022-11-24T14:17:28.893Z,18.95
2022-11-24T14:19:57.727Z,11.95
2022-11-24T14:22:34.957Z,22.33
2022-11-24T14:25:03.042Z,14.10
2022-11-24T14:27:36.406Z,11.07
2022-11-24T14:30:15.768Z,18.08
2022-11-24T14:32:57.299Z,16.70
2022-11-24T14:35:32.276Z,15.75
2022-11-24T14:38:03.568Z,17.08
2022-11-24T14:40:43.663Z,22.55
2022-11-24T14:43:32.142Z,25.13
2022-11-24T14:46:07.835Z,17.50
2022-11-24T14:48:40.126Z,16.00
2022-11-24T14:51:22.485Z,18.42
2022-11-24T14:53:52.755Z,24.83
2022-11-24T14:56:24.189Z,17.40
2022-11-24T14:58:51.470Z,18.58
2022-11-24T15:01:32.986Z,16.05
2022-11-24T15:04:26.630Z,16.85
2022-11-24T15:07:17.263Z,18.58
2022-11-24T15:09:59.770Z,19.52
2022-11-24T15:12:48.607Z,18.83
2022-11-24T15:15:15.719Z,17.52
2022-11-24T15:17:55.533Z,13.85
2022-11-24T15:20:45.822Z,18.23
2022-11-24T15:23:30.239Z,22.05
2022-11-24T15:26:03.140Z,15.13
2022-11-24T15:28:31.414Z,16.45
2022-11-24T15:31:07.043Z,18.20
2022-11-24T15:33:34.045Z,19.02
2022-11-24T15:36:01.294Z,21.40
2022-11-24T15:38:28.856Z,26.13
2022-11-24T15:40:58.572Z,22.08
2022-11-24T15:43:37.331Z,25.58
2022-11-24T15:46:04.889Z,23.20
2022-11-24T15:48:32.326Z,20.52
2022-11-24T15:51:02.692Z,18.45
2022-11-24T15:53:44.773Z,18.00
2022-11-24T15:56:22.637Z,21.20
2022-11-24T15:58:49.671Z,20.90
2022-11-24T16:01:16.935Z,22.38
2022-11-24T16:03:47.420Z,19.02
2022-11-24T16:06:24.732Z,19.52
2022-11-24T16:08:54.232Z,20.15
2022-11-24T16:11:22.096Z,17.75
2022-11-24T16:13:52.880Z,16.48
2022-11-24T16:16:22.908Z,20.02
2022-11-24T16:18:50.041Z,16.33
2022-11-24T16:21:17.130Z,19.17
2022-11-24T16:23:44.362Z,17.15
2022-11-24T16:26:11.400Z,24.75
2022-11-24T16:28:38.405Z,17.83
2022-11-24T16:31:05.576Z,17.38
2022-11-24T16:33:32.678Z,18.23
2022-11-24T16:35:59.649Z,22.88
2022-11-24T16:38:26.668Z,20.77
2022-11-24T16:40:57.336Z,21.38
2022-11-24T16:43:27.465Z,22.75
2022-11-24T16:46:07.307Z,19.83
2022-11-24T16:48:37.443Z,24.23
2022-11-24T16:51:10.341Z,26.80
2022-11-24T16:53:38.235Z,27.43
2022-11-24T16:56:05.558Z,28.25
2022-11-24T16:58:32.922Z,25.70
2022-11-24T17:01:13.807Z,20.83
2022-11-24T17:03:41.478Z,26.30
2022-11-24T17:06:13.533Z,22.58
2022-11-24T17:08:41.617Z,28.20
2022-11-24T17:11:16.861Z,31.05
2022-11-24T17:13:45.889Z,28.73
2022-11-24T17:16:18.729Z,39.13
2022-11-24T17:18:46.098Z,32.33
2022-11-24T17:21:18.999Z,36.10
2022-11-24T17:23:46.674Z,26.77
2022-11-24T17:26:17.898Z,21.45
2022-11-24T17:28:45.401Z,33.45
2022-11-24T17:31:24.345Z,20.83
2022-11-24T17:33:55.342Z,17.15
2022-11-24T17:36:23.252Z,18.58
2022-11-24T17:38:51.010Z,24.90
2022-11-24T17:41:19.281Z,29.23
2022-11-24T17:43:51.914Z,24.88
2022-11-24T17:46:19.982Z,27.23
2022-11-24T17:48:47.398Z,27.80
2022-11-24T17:51:17.613Z,19.10
2022-11-24T17:53:47.373Z,26.70
2022-11-24T17:56:17.217Z,21.75
2022-11-24T17:58:45.281Z,36.00
2022-11-24T18:01:14.003Z,29.70
2022-11-24T18:03:41.921Z,26.95
2022-11-24T18:06:13.813Z,29.63
2022-11-24T18:08:43.364Z,28.65
2022-11-24T18:11:27.295Z,21.05
2022-11-24T18:14:00.933Z,23.67
2022-11-24T18:16:30.695Z,27.02
2022-11-24T18:19:10.771Z,26.48
2022-11-24T18:21:46.848Z,18.10
2022-11-24T18:24:14.746Z,27.02
2022-11-24T18:26:43.939Z,34.17
2022-11-24T18:29:11.778Z,20.85
2022-11-24T18:31:39.235Z,23.15
2022-11-24T18:34:06.728Z,28.80
2022-11-24T18:36:34.882Z,21.42
2022-11-24T18:39:07.480Z,22.00
2022-11-24T18:41:34.761Z,33.55
2022-11-24T18:44:08.338Z,35.38
2022-11-24T18:49:02.488Z,42.17
2022-11-24T18:51:30.332Z,32.08
2022-11-24T18:53:58.405Z,38.40
2022-11-24T18:56:26.498Z,37.60
2022-11-24T18:58:55.053Z,29.90
2022-11-24T19:01:25.416Z,41.72
2022-11-24T19:03:55.698Z,41.35
2022-11-24T19:06:24.283Z,42.42
2022-11-24T19:08:54.019Z,38.38
2022-11-24T19:11:35.838Z,37.00
2022-11-24T19:14:05.244Z,45.67
2022-11-24T19:16:33.212Z,69.38
2022-11-24T19:19:01.937Z,62.25
2022-11-24T19:21:34.530Z,60.47
2022-11-24T19:24:05.479Z,41.85
2022-11-24T19:26:35.385Z,55.10
2022-11-24T19:29:03.340Z,58.65
2022-11-24T19:31:31.100Z,52.25
2022-11-24T19:34:00.309Z,56.20
2022-11-24T19:36:28.008Z,50.08
2022-11-24T19:38:57.492Z,55.90
2022-11-24T19:41:30.805Z,50.17
2022-11-24T19:43:59.066Z,59.05
2022-11-24T19:46:29.863Z,61.55
2022-11-24T19:49:00.187Z,50.70
2022-11-24T19:51:33.438Z,46.85
2022-11-24T19:54:01.150Z,45.00
2022-11-24T19:56:31.389Z,29.05
2022-11-24T19:58:58.562Z,52.75
2022-11-24T20:01:33.945Z,42.85
2022-11-24T20:04:04.488Z,38.10
2022-11-24T20:06:35.193Z,43.83
2022-11-24T20:09:02.386Z,38.67
2022-11-24T20:11:30.363Z,45.53
2022-11-24T20:13:58.249Z,48.22
2022-11-24T20:16:30.256Z,53.92
2022-11-24T20:19:02.359Z,59.63
2022-11-24T20:21:32.958Z,57.15
2022-11-24T20:24:12.761Z,59.85
2022-11-24T20:26:43.234Z,58.22
2022-11-24T20:29:12.495Z,55.75
2022-11-24T20:31:43.882Z,58.35
2022-11-24T20:34:11.913Z,57.13
2022-11-24T20:36:42.085Z,48.03
2022-11-24T20:39:19.643Z,52.85
2022-11-24T20:41:47.790Z,55.25
2022-11-24T20:44:16.971Z,38.55
2022-11-24T20:46:46.021Z,46.42
2022-11-24T20:49:16.923Z,39.85
2022-11-24T20:51:47.322Z,33.22
2022-11-24T20:54:16.688Z,45.92
2022-11-24T20:56:44.840Z,44.28
2022-11-24T20:59:14.573Z,44.63
2022-11-24T21:01:45.648Z,38.90
2022-11-24T21:04:17.192Z,45.92
2022-11-24T21:06:44.380Z,42.33
2022-11-24T21:09:11.510Z,42.95
2022-11-24T21:11:39.424Z,52.20
2022-11-24T21:14:07.558Z,37.60
2022-11-24T21:16:36.926Z,49.53
2022-11-24T21:19:09.781Z,52.25
2022-11-24T21:21:38.148Z,49.22
2022-11-24T21:24:12.580Z,54.85
2022-11-24T21:26:41.187Z,45.60
2022-11-24T21:29:08.975Z,59.10
2022-11-24T21:31:37.401Z,53.20
2022-11-24T21:34:06.186Z,58.03
2022-11-24T21:36:35.197Z,65.93
2022-11-24T21:39:03.712Z,55.63
2022-11-24T21:41:33.560Z,61.45
2022-11-24T21:44:01.072Z,65.28
2022-11-24T21:46:32.785Z,65.97
2022-11-24T21:48:59.948Z,69.68
2022-11-24T21:51:27.110Z,61.13
2022-11-24T21:53:54.802Z,52.65
2022-11-24T21:56:23.603Z,57.72
2022-11-24T21:58:53.147Z,66.05
2022-11-24T22:01:22.302Z,74.28
2022-11-24T22:03:50.095Z,64.68
2022-11-24T22:06:19.488Z,53.47
2022-11-24T22:08:49.823Z,44.88
2022-11-24T22:11:20.243Z,57.83
2022-11-24T22:13:48.034Z,56.08
2022-11-24T22:16:17.983Z,48.95
2022-11-24T22:18:45.706Z,52.58
2022-11-24T22:21:24.468Z,45.85
2022-11-24T22:23:52.854Z,49.90
2022-11-24T22:26:22.286Z,47.28
2022-11-24T22:28:49.852Z,45.83
2022-11-24T22:31:19.731Z,49.03
2022-11-24T22:33:47.406Z,47.28
2022-11-24T22:36:16.274Z,45.10
2022-11-24T22:38:43.735Z,32.25
2022-11-24T22:41:19.636Z,28.67
2022-11-24T22:43:47.825Z,33.80
2022-11-24T22:46:17.346Z,28.48
2022-11-24T22:48:45.776Z,29.17
2022-11-24T22:51:15.312Z,25.95
2022-11-24T22:53:46.572Z,27.48
2022-11-24T22:56:13.585Z,34.05
2022-11-24T22:58:40.974Z,26.02
2022-11-24T23:01:19.409Z,34.00
2022-11-24T23:03:47.143Z,26.65
2022-11-24T23:06:20.681Z,21.55
2022-11-24T23:08:47.770Z,23.15
2022-11-24T23:11:18.016Z,18.73
2022-11-24T23:13:45.366Z,14.55
2022-11-24T23:16:17.094Z,8.57
2022-11-24T23:18:47.789Z,10.48
2022-11-24T23:21:27.423Z,11.80
2022-11-24T23:23:55.231Z,12.57
2022-11-24T23:26:24.743Z,19.60
2022-11-24T23:28:51.867Z,13.52
2022-11-24T23:31:22.221Z,16.85
2022-11-24T23:33:49.272Z,15.00
2022-11-24T23:36:18.270Z,16.20
2022-11-24T23:38:46.097Z,9.15
2022-11-24T23:41:18.314Z,9.77
2022-11-24T23:43:45.354Z,10.82
2022-11-24T23:46:17.671Z,18.98
2022-11-24T23:48:44.899Z,13.35
2022-11-24T23:51:18.492Z,11.02
2022-11-24T23:53:45.902Z,9.48
2022-11-24T23:56:17.905Z,9.63
2022-11-24T23:58:45.652Z,10.88
